Time;durP1;ratioP1;P1;durP2;ratioP2;P2;SDS_P1;SDS_P2;PMS_P1;PMS_P2;Temp;Humidity;BMP_temperature;BMP_pressure;BME280_temperature;BME280_humidity;BME280_pressure;Samples;Min_cycle;Max_cycle;Signal;HPM_P1;HPM_P2
2023/04/21 00:02:21;;;;;;;12.87;2.43;;;;;;;;;;5025221;28;20186;-69
2023/04/21 00:04:48;;;;;;;8.63;2.90;;;9.90;99.90;;;;;;5029654;28;20289;-69
2023/04/21 00:07:14;;;;;;;10.67;2.93;;;10.10;99.90;;;;;;5025309;28;20240;-69
2023/04/21 00:09:40;;;;;;;9.47;3.20;;;9.70;99.90;;;;;;5029411;28;20169;-69
2023/04/21 00:12:06;;;;;;;8.23;3.10;;;9.90;99.90;;;;;;5026320;28;20662;-69
2023/04/21 00:14:32;;;;;;;9.40;3.30;;;9.80;99.90;;;;;;5028245;28;20264;-71
2023/04/21 00:16:59;;;;;;;12.07;3.23;;;9.70;99.90;;;;;;5027345;28;20339;-69
2023/04/21 00:19:25;;;;;;;6.93;3.50;;;9.60;99.90;;;;;;5026901;28;20219;-69
2023/04/21 00:21:50;;;;;;;10.07;2.87;;;9.70;99.90;;;;;;5028443;28;20507;-69
2023/04/21 00:24:16;;;;;;;9.40;3.10;;;9.80;99.90;;;;;;5025693;28;20202;-69
2023/04/21 00:26:42;;;;;;;12.60;3.80;;;10.00;99.90;;;;;;5028714;28;20189;-69
2023/04/21 00:29:07;;;;;;;11.20;3.50;;;9.90;99.90;;;;;;5025288;28;20228;-69
2023/04/21 00:31:33;;;;;;;9.97;3.23;;;10.20;99.90;;;;;;5029267;28;20582;-69
2023/04/21 00:33:59;;;;;;;13.30;3.00;;;9.50;99.90;;;;;;5024548;28;20186;-69
2023/04/21 00:36:27;;;;;;;10.03;3.23;;;9.50;99.90;;;;;;5029039;28;20174;-70
2023/04/21 00:38:52;;;;;;;9.17;3.53;;;9.60;99.90;;;;;;5025176;28;20214;-69
2023/04/21 00:41:18;;;;;;;7.87;3.23;;;9.60;99.90;;;;;;5028541;28;20220;-69
2023/04/21 00:44:03;;;;;;;10.00;3.30;;;9.70;99.90;;;;;;5026541;28;20666;-69
2023/04/21 00:46:29;;;;;;;9.90;3.40;;;;;;;;;;5024247;28;20293;-69
2023/04/21 00:48:56;;;;;;;13.10;4.00;;;9.70;99.90;;;;;;5025264;28;20186;-69
2023/04/21 00:51:21;;;;;;;14.73;3.47;;;9.50;99.90;;;;;;5028083;28;20181;-69
2023/04/21 00:53:48;;;;;;;11.23;3.83;;;9.50;99.90;;;;;;5026396;28;20308;-69
2023/04/21 00:56:14;;;;;;;10.57;3.67;;;9.60;99.90;;;;;;5026661;28;20174;-69
2023/04/21 00:58:41;;;;;;;9.63;3.80;;;9.50;99.90;;;;;;5027727;28;20189;-70
2023/04/21 01:01:07;;;;;;;13.03;3.77;;;9.70;99.90;;;;;;5025398;28;20174;-69
2023/04/21 01:03:33;;;;;;;8.73;3.53;;;9.50;99.90;;;;;;5027860;28;20188;-69
2023/04/21 01:05:59;;;;;;;9.47;3.60;;;;;;;;;;5024450;28;20226;-70
2023/04/21 01:08:25;;;;;;;16.67;4.13;;;9.50;99.90;;;;;;5027506;28;20210;-69
2023/04/21 01:10:51;;;;;;;13.50;5.20;;;9.30;99.90;;;;;;5024049;28;20265;-69
2023/04/21 01:13:21;;;;;;;16.70;5.10;;;9.30;99.90;;;;;;5028549;28;20269;-70
2023/04/21 01:15:47;;;;;;;13.00;4.40;;;9.20;99.90;;;;;;5024234;28;20170;-69
2023/04/21 01:18:13;;;;;;;14.90;4.90;;;;;;;;;;5027900;28;20176;-69
2023/04/21 01:20:39;;;;;;;12.63;5.07;;;9.00;99.90;;;;;;5025748;28;20181;-70
2023/04/21 01:23:05;;;;;;;18.70;5.40;;;9.10;99.90;;;;;;5026906;28;20568;-69
2023/04/21 01:25:31;;;;;;;13.27;4.67;;;9.00;99.90;;;;;;5026401;28;20206;-69
2023/04/21 01:27:57;;;;;;;14.60;5.40;;;8.80;99.90;;;;;;5025430;28;20281;-69
2023/04/21 01:30:23;;;;;;;14.03;5.03;;;8.90;99.90;;;;;;5027413;28;20260;-69
2023/04/21 01:32:49;;;;;;;16.00;4.87;;;8.60;99.90;;;;;;5024614;28;20189;-69
2023/04/21 01:35:15;;;;;;;11.90;5.20;;;8.80;99.90;;;;;;5028155;28;20174;-69
2023/04/21 01:37:40;;;;;;;14.00;5.10;;;8.70;99.90;;;;;;5023582;28;20252;-69
2023/04/21 01:40:08;;;;;;;8.67;4.67;;;8.70;99.90;;;;;;5028027;28;20177;-70
2023/04/21 01:42:36;;;;;;;12.07;5.27;;;8.70;99.90;;;;;;5023510;28;20236;-69
2023/04/21 01:45:02;;;;;;;20.70;5.67;;;8.60;99.90;;;;;;5022914;28;20288;-70
2023/04/21 01:47:28;;;;;;;19.43;5.43;;;8.60;99.90;;;;;;5024337;28;20205;-69
2023/04/21 01:49:54;;;;;;;14.50;4.80;;;8.40;99.90;;;;;;5026706;28;20181;-69
2023/04/21 01:52:20;;;;;;;11.80;5.20;;;8.50;99.90;;;;;;5025447;28;20187;-69
2023/04/21 01:54:46;;;;;;;11.10;5.37;;;8.40;99.90;;;;;;5025495;28;20190;-69
2023/04/21 01:57:11;;;;;;;15.93;5.40;;;8.40;99.90;;;;;;5026732;28;20181;-69
2023/04/21 01:59:38;;;;;;;14.93;4.97;;;8.50;99.90;;;;;;5023945;28;20201;-70
2023/04/21 02:02:03;;;;;;;16.17;5.50;;;8.50;99.90;;;;;;5027185;28;20196;-68
2023/04/21 02:04:29;;;;;;;25.13;5.57;;;8.40;99.90;;;;;;5023415;28;20696;-69
2023/04/21 02:06:55;;;;;;;19.30;5.33;;;8.50;99.90;;;;;;5027620;28;20221;-69
2023/04/21 02:09:21;;;;;;;14.97;6.00;;;;;;;;;;5022852;28;20269;-69
2023/04/21 02:11:47;;;;;;;16.47;5.80;;;8.40;99.90;;;;;;5027498;28;20185;-68
2023/04/21 02:14:12;;;;;;;16.13;5.60;;;8.30;99.90;;;;;;5023928;28;20174;-71
2023/04/21 02:16:38;;;;;;;11.43;5.03;;;8.10;99.90;;;;;;5026149;28;20589;-69
2023/04/21 02:19:05;;;;;;;11.20;5.10;;;8.30;99.90;;;;;;5024911;28;20240;-71
2023/04/21 02:21:31;;;;;;;15.03;5.87;;;8.30;99.90;;;;;;5025008;28;20515;-70
2023/04/21 02:23:57;;;;;;;19.00;5.70;;;8.30;99.90;;;;;;5026015;28;20178;-69
2023/04/21 02:26:23;;;;;;;16.87;6.00;;;7.10;99.90;;;;;;5023675;28;20290;-70
2023/04/21 02:28:50;;;;;;;12.60;5.93;;;8.30;99.90;;;;;;5026227;28;20169;-71
2023/04/21 02:31:17;;;;;;;15.93;6.00;;;8.40;99.90;;;;;;5024753;28;20193;-70
2023/04/21 02:33:43;;;;;;;16.93;5.90;;;8.40;99.90;;;;;;5027110;28;20174;-70
2023/04/21 02:36:09;;;;;;;16.83;6.00;;;8.60;99.90;;;;;;5022375;28;20658;-71
2023/04/21 02:38:35;;;;;;;17.40;6.30;;;8.40;99.90;;;;;;5026877;28;20260;-70
2023/04/21 02:41:01;;;;;;;11.43;5.73;;;8.50;99.90;;;;;;5022663;28;20189;-71
2023/04/21 02:43:26;;;;;;;18.33;6.50;;;8.70;99.90;;;;;;5026390;28;20178;-70
2023/04/21 02:45:52;;;;;;;12.70;6.37;;;8.50;99.90;;;;;;5024034;28;20300;-70
2023/04/21 02:48:21;;;;;;;13.03;6.03;;;8.70;99.90;;;;;;5007584;28;20182;-71
2023/04/21 02:50:48;;;;;;;16.53;6.50;;;8.60;99.90;;;;;;5007014;28;20690;-70
2023/04/21 02:53:14;;;;;;;17.27;6.27;;;8.50;99.90;;;;;;5024479;28;20192;-70
2023/04/21 02:55:39;;;;;;;15.93;6.37;;;8.70;99.90;;;;;;5026162;28;20264;-70
2023/04/21 02:58:06;;;;;;;18.67;6.23;;;8.80;99.90;;;;;;5022943;28;20191;-70
2023/04/21 03:00:31;;;;;;;9.83;5.80;;;8.80;99.90;;;;;;5026113;28;20174;-70
2023/04/21 03:02:57;;;;;;;19.30;6.87;;;8.80;99.90;;;;;;5022318;28;20265;-71
2023/04/21 03:05:24;;;;;;;15.90;6.77;;;;;;;;;;5026387;28;20217;-70
2023/04/21 03:07:49;;;;;;;14.27;6.73;;;8.90;99.90;;;;;;5021578;28;20309;-70
2023/04/21 03:10:15;;;;;;;19.03;6.80;;;8.90;99.90;;;;;;5008818;28;20277;-70
2023/04/21 03:12:41;;;;;;;14.33;6.43;;;9.00;99.90;;;;;;5022826;28;20194;-70
2023/04/21 03:15:07;;;;;;;18.97;7.23;;;8.80;99.90;;;;;;5025680;28;20681;-70
2023/04/21 03:17:32;;;;;;;20.60;7.43;;;8.80;99.90;;;;;;5024047;28;20192;-70
2023/04/21 03:19:58;;;;;;;14.97;7.03;;;8.90;99.90;;;;;;5023929;28;20182;-70
2023/04/21 03:22:24;;;;;;;16.00;6.87;;;8.90;99.90;;;;;;5025199;28;20181;-70
2023/04/21 03:24:49;;;;;;;20.00;7.07;;;8.80;99.90;;;;;;5022791;28;20276;-70
2023/04/21 03:27:15;;;;;;;17.67;6.07;;;8.80;99.90;;;;;;5007939;28;20215;-70
2023/04/21 03:29:40;;;;;;;13.50;6.57;;;9.10;99.90;;;;;;5021786;28;20183;-70
2023/04/21 03:32:06;;;;;;;17.27;7.27;;;8.60;99.90;;;;;;5026032;28;20813;-71
2023/04/21 03:34:31;;;;;;;18.50;7.27;;;8.80;99.90;;;;;;5003963;28;20773;-70
2023/04/21 03:36:57;;;;;;;19.10;6.77;;;8.80;99.90;;;;;;5026328;28;20178;-71
2023/04/21 03:39:23;;;;;;;16.80;6.93;;;8.70;99.90;;;;;;5022986;28;20185;-70
2023/04/21 03:41:48;;;;;;;19.17;7.17;;;8.70;99.90;;;;;;5024770;28;20652;-71
2023/04/21 03:44:14;;;;;;;12.07;6.80;;;8.80;99.90;;;;;;5024454;28;20277;-70
2023/04/21 03:46:40;;;;;;;15.50;6.83;;;8.80;99.90;;;;;;5023241;28;20694;-70
2023/04/21 03:49:06;;;;;;;15.67;6.97;;;;;;;;;;5025152;28;20239;-70
2023/04/21 03:51:31;;;;;;;14.93;7.13;;;8.80;99.90;;;;;;5022124;28;20193;-71
2023/04/21 03:53:58;;;;;;;16.93;7.23;;;8.90;99.90;;;;;;5025864;28;20190;-71
2023/04/21 03:56:23;;;;;;;16.60;7.03;;;8.80;99.90;;;;;;5021560;28;20642;-70
2023/04/21 03:58:49;;;;;;;15.10;6.97;;;8.80;99.90;;;;;;5025987;28;20180;-70
2023/04/21 04:01:14;;;;;;;16.37;7.07;;;8.80;99.90;;;;;;5022002;28;20259;-71
2023/04/21 04:03:40;;;;;;;11.97;6.93;;;8.80;99.90;;;;;;5025287;28;20244;-70
2023/04/21 04:06:06;;;;;;;15.20;6.83;;;8.80;99.90;;;;;;5023076;28;20231;-71
2023/04/21 04:08:31;;;;;;;16.97;7.07;;;8.70;99.90;;;;;;5023814;28;20178;-70
2023/04/21 04:10:57;;;;;;;13.47;6.97;;;8.80;99.90;;;;;;5024371;28;20673;-70
2023/04/21 04:13:25;;;;;;;14.83;6.67;;;8.80;99.90;;;;;;5022650;28;20243;-70
2023/04/21 04:15:52;;;;;;;16.90;7.67;;;8.70;99.90;;;;;;5024799;28;20185;-70
2023/04/21 04:18:18;;;;;;;19.63;7.57;;;;;;;;;;5020554;28;20203;-70
2023/04/21 04:20:44;;;;;;;18.73;7.67;;;8.70;99.90;;;;;;5025447;28;20258;-70
2023/04/21 04:23:10;;;;;;;17.73;7.80;;;;;;;;;;5021387;28;20706;-70
2023/04/21 04:25:36;;;;;;;13.60;7.40;;;8.60;99.90;;;;;;5025737;28;20757;-70
2023/04/21 04:28:01;;;;;;;14.63;7.60;;;8.50;99.90;;;;;;5021450;28;20179;-70
2023/04/21 04:30:27;;;;;;;18.17;7.43;;;8.40;99.90;;;;;;5025492;28;20583;-71
2023/04/21 04:32:53;;;;;;;19.90;8.13;;;8.50;99.90;;;;;;5022297;28;20197;-70
2023/04/21 04:35:19;;;;;;;18.53;7.87;;;8.60;99.90;;;;;;5024381;28;20185;-70
2023/04/21 04:37:44;;;;;;;20.57;7.70;;;8.80;99.90;;;;;;5023751;28;20178;-70
2023/04/21 04:40:11;;;;;;;19.50;8.03;;;8.50;99.90;;;;;;5022741;28;20256;-70
2023/04/21 04:42:38;;;;;;;23.37;8.37;;;8.50;99.90;;;;;;5027082;28;20538;-71
2023/04/21 04:45:07;;;;;;;15.27;7.47;;;8.50;99.90;;;;;;5025244;28;20202;-71
2023/04/21 04:47:35;;;;;;;13.10;6.97;;;8.60;99.90;;;;;;5028167;28;20185;-70
2023/04/21 04:50:00;;;;;;;17.60;7.90;;;8.40;99.90;;;;;;5025101;28;20183;-70
2023/04/21 04:52:26;;;;;;;16.83;7.73;;;8.50;99.90;;;;;;5028805;28;20261;-70
2023/04/21 04:54:52;;;;;;;16.60;7.60;;;8.50;99.90;;;;;;5024301;28;20626;-71
2023/04/21 04:57:17;;;;;;;22.00;7.70;;;8.60;99.90;;;;;;5028886;28;20182;-69
2023/04/21 04:59:43;;;;;;;17.43;7.57;;;8.60;99.90;;;;;;5007405;28;20715;-68
2023/04/21 05:02:09;;;;;;;16.97;8.57;;;8.50;99.90;;;;;;5027986;28;20184;-68
2023/04/21 05:04:35;;;;;;;17.53;8.00;;;8.50;99.90;;;;;;5026232;28;20183;-68
2023/04/21 05:07:00;;;;;;;18.33;7.73;;;8.50;99.90;;;;;;5026336;28;20578;-71
2023/04/21 05:09:26;;;;;;;17.47;7.70;;;8.40;99.90;;;;;;5027254;28;20208;-70
2023/04/21 05:11:52;;;;;;;19.13;7.80;;;8.50;99.90;;;;;;5025139;28;20189;-68
2023/04/21 05:14:17;;;;;;;17.63;7.77;;;8.40;99.90;;;;;;5027665;28;20742;-68
2023/04/21 05:16:43;;;;;;;18.53;7.70;;;8.40;99.90;;;;;;5027563;28;20258;-68
2023/04/21 05:19:09;;;;;;;24.60;8.30;;;8.50;99.90;;;;;;5029032;28;20174;-71
2023/04/21 05:21:34;;;;;;;20.80;8.23;;;8.60;99.90;;;;;;5023703;28;20175;-68
2023/04/21 05:24:00;;;;;;;19.47;8.40;;;8.40;99.90;;;;;;5028287;28;20534;-71
2023/04/21 05:26:26;;;;;;;17.63;7.50;;;;;;;;;;5024715;28;20264;-68
2023/04/21 05:28:55;;;;;;;16.00;7.43;;;8.40;99.90;;;;;;5027475;28;20184;-69
2023/04/21 05:31:24;;;;;;;22.87;8.80;;;8.30;99.90;;;;;;5025527;28;20188;-69
2023/04/21 05:33:50;;;;;;;21.90;7.73;;;;;;;;;;5026728;28;20249;-69
2023/04/21 05:36:16;;;;;;;19.07;8.37;;;7.90;99.90;;;;;;5026166;28;20185;-69
2023/04/21 05:38:41;;;;;;;17.57;7.93;;;8.30;99.90;;;;;;5025280;28;20173;-69
2023/04/21 05:41:07;;;;;;;17.57;7.90;;;8.20;99.90;;;;;;5027059;28;20193;-69
2023/04/21 05:43:34;;;;;;;14.57;8.17;;;8.10;99.90;;;;;;5024097;28;20179;-69
2023/04/21 05:46:00;;;;;;;27.73;8.87;;;8.20;99.90;;;;;;5027447;28;20248;-69
2023/04/21 05:48:26;;;;;;;16.80;8.10;;;8.30;99.90;;;;;;5027509;28;20194;-69
2023/04/21 05:50:51;;;;;;;17.10;8.03;;;8.30;99.90;;;;;;5027826;28;20660;-69
2023/04/21 05:53:17;;;;;;;20.33;8.13;;;8.30;99.90;;;;;;5022656;28;20174;-69
2023/04/21 05:55:42;;;;;;;16.87;8.63;;;8.30;99.90;;;;;;5030786;28;20208;-69
2023/04/21 05:58:08;;;;;;;22.50;8.10;;;8.30;99.90;;;;;;5024432;28;20230;-69
2023/04/21 06:00:33;;;;;;;15.27;8.80;;;8.40;99.90;;;;;;5026799;28;20524;-69
2023/04/21 06:02:59;;;;;;;18.67;8.13;;;8.30;99.90;;;;;;5025520;28;20181;-69
2023/04/21 06:05:25;;;;;;;18.17;8.00;;;8.30;99.90;;;;;;5024887;28;20201;-69
2023/04/21 06:07:50;;;;;;;22.50;8.00;;;8.40;99.90;;;;;;5026371;28;20301;-69
2023/04/21 06:10:17;;;;;;;20.20;8.63;;;8.10;99.90;;;;;;5023642;28;20186;-69
2023/04/21 06:12:43;;;;;;;22.17;8.43;;;8.30;99.90;;;;;;5027150;28;20256;-69
2023/04/21 06:15:09;;;;;;;19.97;8.33;;;8.20;99.90;;;;;;5023175;28;20183;-69
2023/04/21 06:17:35;;;;;;;18.17;8.27;;;8.40;99.90;;;;;;5027373;28;20178;-69
2023/04/21 06:20:00;;;;;;;19.10;8.60;;;8.40;99.90;;;;;;5019114;28;20181;-69
2023/04/21 06:22:26;;;;;;;16.37;8.67;;;8.60;99.90;;;;;;5027153;28;20178;-69
2023/04/21 06:24:52;;;;;;;18.63;8.17;;;8.40;99.90;;;;;;5024343;28;20206;-69
2023/04/21 06:27:17;;;;;;;18.53;7.97;;;8.50;99.90;;;;;;5025399;28;20551;-69
2023/04/21 06:29:43;;;;;;;17.77;8.10;;;8.40;99.90;;;;;;5025540;28;20185;-69
2023/04/21 06:32:12;;;;;;;23.33;8.70;;;8.50;99.90;;;;;;5023758;28;20272;-69
2023/04/21 06:34:38;;;;;;;16.07;8.23;;;8.60;99.90;;;;;;5026136;28;20208;-69
2023/04/21 06:37:03;;;;;;;20.33;8.33;;;7.70;99.90;;;;;;5023179;28;20193;-69
2023/04/21 06:39:29;;;;;;;20.30;8.50;;;8.60;99.90;;;;;;5026642;28;20174;-69
2023/04/21 06:41:56;;;;;;;19.43;9.07;;;8.80;99.90;;;;;;5022479;28;20590;-69
2023/04/21 06:44:22;;;;;;;23.33;10.23;;;8.80;99.90;;;;;;5026630;28;20504;-69
2023/04/21 06:46:48;;;;;;;27.67;11.93;;;8.50;99.90;;;;;;5022281;28;20224;-69
2023/04/21 06:49:14;;;;;;;30.27;13.43;;;8.50;99.90;;;;;;5026614;28;20195;-68
2023/04/21 06:51:39;;;;;;;20.37;12.33;;;8.60;99.90;;;;;;5023424;28;20182;-69
2023/04/21 06:54:05;;;;;;;24.60;14.43;;;9.00;99.90;;;;;;5025463;28;20648;-69
2023/04/21 06:56:31;;;;;;;27.47;13.53;;;8.90;99.90;;;;;;5024648;28;20197;-69
2023/04/21 06:58:57;;;;;;;28.10;13.90;;;8.90;99.90;;;;;;5024057;28;20227;-69
2023/04/21 07:01:23;;;;;;;28.20;13.57;;;9.10;99.90;;;;;;5025522;28;20636;-69
2023/04/21 07:03:50;;;;;;;30.90;12.97;;;9.10;99.90;;;;;;5022637;28;20181;-68
2023/04/21 07:06:15;;;;;;;28.33;12.83;;;9.30;99.90;;;;;;5024948;28;20249;-70
2023/04/21 07:08:41;;;;;;;31.60;12.33;;;9.10;99.90;;;;;;5022363;28;20257;-70
2023/04/21 07:11:07;;;;;;;31.40;12.50;;;9.30;99.90;;;;;;5026403;28;20652;-70
2023/04/21 07:13:32;;;;;;;23.03;11.03;;;9.40;99.90;;;;;;5021805;28;20182;-71
2023/04/21 07:15:59;;;;;;;25.63;10.30;;;;;;;;;;5029389;28;20209;-70
2023/04/21 07:18:24;;;;;;;17.93;9.00;;;9.70;99.90;;;;;;5024990;28;20181;-70
2023/04/21 07:20:51;;;;;;;25.37;10.17;;;9.50;99.90;;;;;;5021096;28;20486;-71
2023/04/21 07:23:16;;;;;;;28.30;11.13;;;9.40;99.90;;;;;;5024398;28;20185;-71
2023/04/21 07:25:42;;;;;;;20.57;9.33;;;9.60;99.90;;;;;;5023200;28;20213;-70
2023/04/21 07:28:08;;;;;;;23.07;9.90;;;9.50;99.90;;;;;;5025528;28;20315;-70
2023/04/21 07:30:33;;;;;;;22.20;10.27;;;9.50;99.90;;;;;;5022299;28;20260;-69
2023/04/21 07:32:59;;;;;;;24.93;9.50;;;9.50;99.90;;;;;;5026099;28;20182;-71
2023/04/21 07:35:25;;;;;;;21.77;10.10;;;9.90;99.90;;;;;;5021311;28;20626;-71
2023/04/21 07:37:51;;;;;;;30.80;10.63;;;9.80;99.90;;;;;;5026090;28;20189;-70
2023/04/21 07:40:17;;;;;;;25.77;10.13;;;9.70;99.90;;;;;;5022173;28;20186;-71
2023/04/21 07:42:42;;;;;;;29.67;10.60;;;9.60;99.90;;;;;;5025253;28;20188;-69
2023/04/21 07:45:08;;;;;;;23.63;10.00;;;9.60;99.90;;;;;;5023262;28;20226;-68
2023/04/21 07:47:34;;;;;;;21.70;9.63;;;9.60;99.90;;;;;;5023615;28;20232;-69
2023/04/21 07:50:00;;;;;;;27.27;10.17;;;;;;;;;;5024888;28;20178;-69
2023/04/21 07:52:25;;;;;;;21.40;10.17;;;9.70;99.90;;;;;;5004717;28;20182;-69
2023/04/21 07:54:51;;;;;;;24.77;10.07;;;9.60;99.90;;;;;;5025291;28;20251;-71
2023/04/21 07:57:17;;;;;;;23.90;9.60;;;9.50;99.90;;;;;;5021956;28;20266;-71
2023/04/21 07:59:42;;;;;;;28.47;10.97;;;9.40;99.90;;;;;;5029259;28;20537;-70
2023/04/21 08:02:08;;;;;;;21.37;9.80;;;9.50;99.90;;;;;;5021110;28;20185;-70
2023/04/21 08:04:34;;;;;;;22.83;10.37;;;9.40;99.90;;;;;;5025445;28;20644;-69
2023/04/21 08:06:59;;;;;;;36.60;12.90;;;9.60;99.90;;;;;;5022196;28;20233;-70
2023/04/21 08:09:25;;;;;;;26.53;12.10;;;9.50;99.90;;;;;;5024290;28;20228;-70
2023/04/21 08:11:51;;;;;;;25.80;11.30;;;9.50;99.90;;;;;;5023512;28;20194;-70
2023/04/21 08:14:17;;;;;;;25.30;11.03;;;9.60;99.90;;;;;;5023321;28;20189;-70
2023/04/21 08:16:43;;;;;;;27.20;12.23;;;9.50;99.90;;;;;;5026013;28;20181;-68
2023/04/21 08:19:09;;;;;;;31.33;11.70;;;9.60;99.90;;;;;;5025426;28;20625;-68
2023/04/21 08:21:35;;;;;;;31.57;11.87;;;9.70;99.90;;;;;;5028315;28;20246;-68
2023/04/21 08:24:01;;;;;;;29.80;12.20;;;9.60;99.90;;;;;;5025392;28;20174;-70
2023/04/21 08:26:28;;;;;;;25.47;11.07;;;9.80;99.90;;;;;;5029323;28;20735;-69
2023/04/21 08:28:55;;;;;;;39.17;12.97;;;9.50;99.90;;;;;;5024560;28;20733;-69
2023/04/21 08:31:21;;;;;;;31.87;12.07;;;9.60;99.90;;;;;;5029218;28;20174;-71
2023/04/21 08:33:47;;;;;;;27.10;12.23;;;9.80;99.90;;;;;;5025586;28;20240;-70
2023/04/21 08:36:12;;;;;;;36.07;12.63;;;9.60;99.90;;;;;;5028478;28;20748;-70
2023/04/21 08:38:43;;;;;;;31.00;11.43;;;9.80;99.90;;;;;;5026721;28;20182;-70
2023/04/21 08:41:09;;;;;;;22.90;11.20;;;9.90;99.90;;;;;;5027476;28;20170;-71
2023/04/21 08:43:34;;;;;;;20.43;10.80;;;9.90;99.90;;;;;;5009683;28;20207;-70
2023/04/21 08:46:04;;;;;;;21.33;10.60;;;10.10;99.90;;;;;;5025835;28;20217;-70
2023/04/21 08:48:32;;;;;;;29.80;10.37;;;10.10;99.90;;;;;;5027898;28;20591;-71
2023/04/21 08:50:58;;;;;;;18.03;9.10;;;10.20;99.90;;;;;;5025500;28;20237;-70
2023/04/21 08:53:24;;;;;;;20.90;9.33;;;10.30;99.90;;;;;;5027815;28;20206;-70
2023/04/21 08:55:52;;;;;;;18.70;9.10;;;10.20;99.90;;;;;;5025002;28;20244;-70
2023/04/21 08:58:21;;;;;;;19.53;9.17;;;10.30;99.90;;;;;;5028584;28;20186;-70
2023/04/21 09:00:47;;;;;;;20.87;9.37;;;10.40;99.90;;;;;;5024594;28;20645;-70
2023/04/21 09:03:12;;;;;;;18.93;9.43;;;10.60;99.90;;;;;;5028818;28;20231;-70
2023/04/21 09:05:38;;;;;;;25.10;9.10;;;10.40;99.90;;;;;;5026541;28;20707;-71
2023/04/21 09:08:15;;;;;;;20.40;10.27;;;10.60;99.90;;;;;;5028401;28;20188;-69
2023/04/21 09:10:47;;;;;;;39.23;9.93;;;10.80;99.90;;;;;;5023927;28;20182;-68
2023/04/21 09:13:14;;;;;;;22.53;9.00;;;10.90;99.90;;;;;;5024032;28;20239;-68
2023/04/21 09:15:41;;;;;;;15.23;8.77;;;11.10;99.90;;;;;;5024433;28;20182;-69
2023/04/21 09:18:18;;;;;;;17.80;9.40;;;11.10;99.90;;;;;;5028031;28;20178;-69
2023/04/21 09:20:45;;;;;;;25.17;9.77;;;11.10;99.90;;;;;;5025919;28;20190;-69
2023/04/21 09:23:11;;;;;;;15.70;8.83;;;11.10;99.90;;;;;;5019223;28;20317;-70
2023/04/21 09:25:39;;;;;;;13.50;8.30;;;11.30;99.90;;;;;;5027783;28;20217;-69
2023/04/21 09:28:09;;;;;;;17.50;9.17;;;11.00;99.90;;;;;;5025892;28;20241;-69
2023/04/21 09:30:40;;;;;;;14.87;8.73;;;11.20;99.90;;;;;;5025206;28;20340;-70
2023/04/21 09:33:05;;;;;;;11.80;7.83;;;11.50;99.90;;;;;;5026712;28;20189;-70
2023/04/21 09:35:35;;;;;;;14.73;8.37;;;11.20;99.90;;;;;;5025675;28;20194;-69
2023/04/21 09:38:03;;;;;;;15.80;8.20;;;11.20;99.90;;;;;;5026180;28;20185;-70
2023/04/21 09:40:29;;;;;;;12.73;8.43;;;11.20;99.90;;;;;;5026475;28;20218;-70
2023/04/21 09:42:55;;;;;;;12.57;7.73;;;11.10;99.90;;;;;;5025128;28;20189;-69
2023/04/21 09:45:25;;;;;;;16.10;8.20;;;11.30;99.90;;;;;;5026740;28;20201;-70
2023/04/21 09:47:59;;;;;;;12.17;8.03;;;11.40;99.90;;;;;;5024511;28;20544;-69
2023/04/21 09:50:25;;;;;;;12.43;7.80;;;11.50;99.90;;;;;;5008977;28;20201;-70
2023/04/21 09:52:52;;;;;;;17.60;7.47;;;11.40;99.90;;;;;;5023831;28;20276;-69
2023/04/21 09:55:25;;;;;;;11.77;7.70;;;11.50;99.90;;;;;;5026679;28;20174;-70
2023/04/21 09:57:54;;;;;;;12.53;7.70;;;11.40;99.90;;;;;;5023982;28;20178;-70
2023/04/21 10:00:21;;;;;;;11.00;7.70;;;11.00;99.90;;;;;;5009445;28;20178;-70
2023/04/21 10:02:49;;;;;;;12.43;8.07;;;11.30;99.90;;;;;;5023758;28;20183;-69
2023/04/21 10:05:15;;;;;;;13.53;7.73;;;10.90;99.90;;;;;;5027094;28;20210;-69
2023/04/21 10:07:43;;;;;;;16.97;8.20;;;10.80;99.90;;;;;;5025426;28;20297;-69
2023/04/21 10:10:23;;;;;;;14.03;7.90;;;10.80;99.90;;;;;;5028960;28;20589;-70
2023/04/21 10:12:50;;;;;;;17.60;7.80;;;10.80;99.90;;;;;;5028635;28;20189;-70
2023/04/21 10:15:42;;;;;;;12.67;8.13;;;10.50;99.90;;;;;;5026715;28;20241;-69
2023/04/21 10:18:11;;;;;;;12.43;8.40;;;10.30;99.90;;;;;;5021886;28;20190;-70
2023/04/21 10:20:55;;;;;;;12.77;7.97;;;10.30;99.90;;;;;;5025221;28;20202;-70
2023/04/21 10:23:42;;;;;;;10.90;7.60;;;10.20;99.90;;;;;;5026315;28;20636;-70
2023/04/21 10:26:21;;;;;;;12.77;7.93;;;10.30;99.90;;;;;;5022630;28;20340;-70
2023/04/21 10:28:47;;;;;;;27.47;8.53;;;;;;;;;;5029697;28;20173;-70
2023/04/21 10:31:34;;;;;;;29.03;8.90;;;10.20;99.90;;;;;;5022918;28;20189;-70
2023/04/21 10:34:06;;;;;;;22.73;8.70;;;10.30;99.90;;;;;;5025409;28;20170;-70
2023/04/21 10:36:41;;;;;;;12.00;7.63;;;10.40;99.90;;;;;;5024380;28;20200;-70
2023/04/21 10:39:07;;;;;;;11.53;7.40;;;10.60;99.90;;;;;;5024486;28;20264;-70
2023/04/21 10:41:33;;;;;;;11.37;6.93;;;10.30;99.90;;;;;;5024662;28;20174;-70
2023/04/21 10:44:13;;;;;;;18.53;7.80;;;10.30;99.90;;;;;;5016975;28;20178;-70
2023/04/21 10:46:43;;;;;;;16.13;7.27;;;10.00;99.90;;;;;;5028221;28;20213;-70
2023/04/21 10:49:10;;;;;;;16.53;7.67;;;10.00;99.90;;;;;;5027392;28;20175;-69
2023/04/21 10:52:04;;;;;;;17.20;8.03;;;10.20;99.90;;;;;;5024887;28;20656;-70
2023/04/21 10:54:45;;;;;;;12.67;7.40;;;10.10;99.90;;;;;;5025150;28;20193;-68
2023/04/21 10:57:16;;;;;;;12.70;7.70;;;10.10;99.90;;;;;;5025556;28;20182;-70
2023/04/21 10:59:43;;;;;;;12.63;7.50;;;10.10;99.90;;;;;;5026556;28;20244;-70
2023/04/21 11:02:14;;;;;;;11.90;7.93;;;10.10;99.90;;;;;;5026042;28;20182;-70
2023/04/21 11:04:46;;;;;;;12.90;8.47;;;;;;;;;;5025590;28;20201;-70
2023/04/21 11:07:13;;;;;;;11.57;7.90;;;10.40;99.90;;;;;;5025635;28;20288;-70
2023/04/21 11:09:40;;;;;;;12.57;8.27;;;10.50;99.90;;;;;;5025226;28;20664;-70
2023/04/21 11:12:10;;;;;;;13.97;8.47;;;10.60;99.90;;;;;;5026072;28;20186;-70
2023/04/21 11:14:38;;;;;;;12.33;7.30;;;10.50;99.90;;;;;;5021828;28;20287;-69
2023/04/21 11:17:09;;;;;;;13.03;7.00;;;10.50;99.90;;;;;;5026229;28;20181;-70
2023/04/21 11:19:36;;;;;;;10.50;7.00;;;10.80;99.90;;;;;;5024795;28;20179;-71
2023/04/21 11:22:03;;;;;;;8.97;6.40;;;10.70;99.90;;;;;;5026138;28;20190;-70
2023/04/21 11:24:30;;;;;;;8.73;6.33;;;10.70;99.90;;;;;;5020274;28;20261;-70
2023/04/21 11:26:55;;;;;;;8.83;6.27;;;10.70;99.90;;;;;;5025797;28;20263;-70
2023/04/21 11:29:21;;;;;;;13.07;7.33;;;10.70;99.90;;;;;;5022717;28;20629;-70
2023/04/21 11:31:49;;;;;;;11.90;6.73;;;10.70;99.90;;;;;;5024855;28;20190;-69
2023/04/21 11:34:15;;;;;;;12.33;7.60;;;10.90;99.90;;;;;;5023862;28;20273;-70
2023/04/21 11:36:43;;;;;;;13.20;7.07;;;10.50;99.90;;;;;;5023672;28;20232;-70
2023/04/21 11:39:11;;;;;;;10.30;7.00;;;10.40;99.90;;;;;;5024911;28;20186;-70
2023/04/21 11:41:41;;;;;;;10.50;6.60;;;10.70;99.90;;;;;;5022409;28;20186;-70
2023/04/21 11:44:07;;;;;;;9.90;6.17;;;10.70;99.90;;;;;;5024960;28;20182;-70
2023/04/21 11:46:32;;;;;;;16.10;6.60;;;10.70;99.90;;;;;;5022380;28;20214;-70
2023/04/21 11:49:12;;;;;;;9.63;5.53;;;10.40;99.90;;;;;;5025641;28;20227;-71
2023/04/21 11:51:39;;;;;;;8.47;5.40;;;10.80;99.90;;;;;;5023701;28;20204;-70
2023/04/21 11:54:07;;;;;;;8.60;4.33;;;10.60;99.90;;;;;;5029030;28;20182;-70
2023/04/21 11:56:37;;;;;;;8.77;4.17;;;10.90;99.90;;;;;;5026323;28;20269;-70
2023/04/21 11:59:11;;;;;;;7.20;4.40;;;10.60;99.90;;;;;;5029618;28;20181;-70
2023/04/21 12:01:48;;;;;;;6.20;4.23;;;10.90;99.90;;;;;;5026194;28;20178;-70
2023/04/21 12:04:19;;;;;;;5.83;3.83;;;11.10;99.90;;;;;;5028410;28;20178;-69
2023/04/21 12:06:53;;;;;;;7.72;4.10;;;10.90;99.90;;;;;;5027000;28;20233;-70
2023/04/21 12:09:20;;;;;;;5.22;3.85;;;11.00;99.90;;;;;;5027872;28;20519;-69
2023/04/21 12:11:50;;;;;;;7.00;4.07;;;11.10;99.90;;;;;;5026870;28;20182;-70
2023/04/21 12:14:18;;;;;;;6.97;4.20;;;10.90;99.90;;;;;;5028310;28;20208;-70
2023/04/21 12:16:43;;;;;;;8.07;3.77;;;10.50;99.90;;;;;;5026252;28;20178;-69
2023/04/21 12:19:09;;;;;;;6.57;4.10;;;10.60;99.90;;;;;;5028718;28;20666;-69
2023/04/21 12:21:38;;;;;;;5.80;4.00;;;10.60;99.90;;;;;;5025614;28;20274;-70
2023/04/21 12:24:04;;;;;;;5.97;4.00;;;10.50;99.90;;;;;;5029184;28;20249;-70
2023/04/21 12:26:29;;;;;;;9.67;4.60;;;11.00;99.90;;;;;;5027642;28;20322;-69
2023/04/21 12:28:55;;;;;;;9.40;4.73;;;10.70;99.90;;;;;;5029241;28;20220;-69
2023/04/21 12:31:21;;;;;;;6.60;4.30;;;10.80;99.90;;;;;;5025149;28;20214;-70
2023/04/21 12:33:46;;;;;;;6.30;4.50;;;10.90;99.90;;;;;;5028617;28;20632;-70
2023/04/21 12:36:12;;;;;;;4.90;3.83;;;10.80;99.90;;;;;;5008988;28;20688;-70
2023/04/21 12:38:38;;;;;;;5.63;4.13;;;10.80;99.90;;;;;;5027215;28;20185;-70
2023/04/21 12:41:03;;;;;;;6.80;4.30;;;10.70;99.90;;;;;;5027464;28;20265;-70
2023/04/21 12:43:29;;;;;;;8.20;4.13;;;10.70;99.90;;;;;;5026040;28;20199;-70
2023/04/21 12:45:55;;;;;;;5.67;4.47;;;10.90;99.90;;;;;;5027905;28;20214;-70
2023/04/21 12:48:21;;;;;;;6.87;4.37;;;11.10;99.90;;;;;;5025249;28;20501;-70